Time;durP1;ratioP1;P1;durP2;ratioP2;P2;SDS_P1;SDS_P2;PMS_P1;PMS_P2;Temp;Humidity;BMP_temperature;BMP_pressure;BME280_temperature;BME280_humidity;BME280_pressure;Samples;Min_cycle;Max_cycle;Signal;HPM_P1;HPM_P2
2021/03/13 00:01:28;;;;;;;0.40;0.40;;;4.50;99.90;;;;;;5096161;28;20993;-82
2021/03/13 00:03:54;;;;;;;0.70;0.50;;;4.50;99.90;;;;;;5096456;28;20443;-82
2021/03/13 00:06:21;;;;;;;1.63;0.53;;;4.50;99.90;;;;;;5096333;28;20468;-83
2021/03/13 00:08:47;;;;;;;0.50;0.50;;;4.50;99.90;;;;;;5096331;28;20444;-82
2021/03/13 00:11:13;;;;;;;1.23;0.60;;;4.60;99.90;;;;;;5096305;28;20448;-82
2021/03/13 00:13:40;;;;;;;0.93;0.63;;;4.60;99.90;;;;;;5096265;28;20520;-82
2021/03/13 00:16:08;;;;;;;0.60;0.60;;;4.70;99.90;;;;;;5095819;28;20482;-82
2021/03/13 00:18:35;;;;;;;0.50;0.50;;;4.60;99.90;;;;;;5096199;28;20451;-82
2021/03/13 00:21:02;;;;;;;0.80;0.70;;;4.70;99.90;;;;;;5095728;28;20939;-82
2021/03/13 00:23:29;;;;;;;1.07;0.60;;;4.70;99.90;;;;;;5095370;28;20431;-83
2021/03/13 00:25:55;;;;;;;0.63;0.50;;;4.70;99.90;;;;;;5095954;28;20471;-82
2021/03/13 00:28:21;;;;;;;2.50;0.60;;;4.80;99.90;;;;;;5095963;28;20452;-82
2021/03/13 00:30:49;;;;;;;3.53;0.60;;;4.80;99.90;;;;;;5096489;28;20448;-82
2021/03/13 00:33:18;;;;;;;1.90;0.60;;;4.80;99.90;;;;;;5095800;28;20436;-83
2021/03/13 00:35:47;;;;;;;3.60;0.70;;;4.80;99.90;;;;;;5095739;28;20464;-83
2021/03/13 00:38:14;;;;;;;1.73;0.63;;;4.80;99.90;;;;;;5095776;28;20455;-83
2021/03/13 00:40:42;;;;;;;0.80;0.60;;;4.80;99.90;;;;;;5095743;28;20459;-83
2021/03/13 00:43:10;;;;;;;1.53;0.53;;;4.90;99.90;;;;;;5095333;28;21021;-83
2021/03/13 00:45:37;;;;;;;0.70;0.50;;;4.90;99.90;;;;;;5095590;28;20837;-82
2021/03/13 00:48:05;;;;;;;0.83;0.50;;;4.80;99.90;;;;;;5095259;28;20444;-82
2021/03/13 00:50:34;;;;;;;1.87;0.53;;;4.80;99.90;;;;;;5095322;28;20476;-82
2021/03/13 00:53:00;;;;;;;0.60;0.50;;;4.80;99.90;;;;;;5095574;28;20477;-82
2021/03/13 00:55:27;;;;;;;0.50;0.40;;;4.80;99.90;;;;;;5095388;28;20447;-82
2021/03/13 00:57:53;;;;;;;1.77;0.60;;;4.70;99.90;;;;;;5095389;28;20448;-82
2021/03/13 01:00:22;;;;;;;1.27;0.50;;;4.60;99.90;;;;;;5095343;28;20455;-82
2021/03/13 01:02:49;;;;;;;1.33;0.40;;;4.60;99.90;;;;;;5095245;28;20843;-82
2021/03/13 01:05:16;;;;;;;0.30;0.30;;;4.60;99.90;;;;;;5095211;28;20440;-82
2021/03/13 01:07:43;;;;;;;0.60;0.30;;;4.60;99.90;;;;;;5095231;28;20448;-82
2021/03/13 01:10:14;;;;;;;0.43;0.33;;;4.50;99.90;;;;;;5095147;28;20455;-81
2021/03/13 01:12:42;;;;;;;1.07;0.40;;;4.50;99.90;;;;;;5095153;28;20428;-81
2021/03/13 01:15:11;;;;;;;0.50;0.40;;;4.40;99.90;;;;;;5095097;28;20444;-82
2021/03/13 01:17:38;;;;;;;1.03;0.40;;;4.30;99.90;;;;;;5094954;28;20474;-82
2021/03/13 01:20:07;;;;;;;0.40;0.40;;;4.30;99.90;;;;;;5094979;28;20443;-82
2021/03/13 01:22:33;;;;;;;0.43;0.40;;;4.30;99.90;;;;;;5094877;28;20483;-82
2021/03/13 01:25:00;;;;;;;0.80;0.40;;;4.20;99.90;;;;;;5094883;28;20452;-82
2021/03/13 01:27:27;;;;;;;0.50;0.50;;;4.10;99.90;;;;;;5094749;28;20475;-82
2021/03/13 01:29:53;;;;;;;0.63;0.60;;;4.10;99.90;;;;;;5094744;28;20517;-82
2021/03/13 01:32:19;;;;;;;0.50;0.50;;;4.00;99.90;;;;;;5094462;28;20539;-82
2021/03/13 01:34:45;;;;;;;0.50;0.50;;;4.00;99.90;;;;;;5093879;28;20440;-82
2021/03/13 01:37:13;;;;;;;1.73;0.50;;;3.90;99.90;;;;;;5094529;28;20475;-82
2021/03/13 01:39:39;;;;;;;1.43;0.70;;;3.90;99.90;;;;;;5094373;28;20805;-82
2021/03/13 01:42:07;;;;;;;3.90;0.60;;;4.00;99.90;;;;;;5094473;28;20455;-83
2021/03/13 01:44:34;;;;;;;1.37;0.67;;;4.00;99.90;;;;;;5094238;28;20436;-82
2021/03/13 01:47:01;;;;;;;2.67;0.90;;;3.90;99.90;;;;;;5094369;28;20464;-82
2021/03/13 01:49:29;;;;;;;0.97;0.53;;;3.90;99.90;;;;;;5094459;28;20432;-82
2021/03/13 01:51:55;;;;;;;1.10;0.70;;;3.90;99.90;;;;;;5094090;28;20807;-82
2021/03/13 01:54:22;;;;;;;1.50;0.60;;;4.00;99.90;;;;;;5094426;28;20452;-83
2021/03/13 01:56:49;;;;;;;1.37;0.70;;;4.00;99.90;;;;;;5093921;28;20867;-82
2021/03/13 01:59:17;;;;;;;4.83;0.77;;;4.00;99.90;;;;;;5094252;28;20448;-82
2021/03/13 02:01:44;;;;;;;1.20;1.10;;;4.00;99.90;;;;;;5093777;28;21062;-83
2021/03/13 02:04:11;;;;;;;1.13;0.70;;;4.00;99.90;;;;;;5094218;28;20501;-83
2021/03/13 02:06:37;;;;;;;1.37;0.60;;;4.10;99.90;;;;;;5093768;28;21104;-83
2021/03/13 02:09:12;;;;;;;4.63;1.00;;;4.10;99.90;;;;;;5094108;28;20451;-83
2021/03/13 02:11:45;;;;;;;0.70;0.70;;;4.10;99.90;;;;;;5094042;28;20454;-83
2021/03/13 02:14:21;;;;;;;1.27;0.80;;;4.20;99.90;;;;;;5094018;28;20432;-83
2021/03/13 02:16:53;;;;;;;2.73;0.80;;;4.20;99.90;;;;;;5093875;28;20463;-83
2021/03/13 02:19:50;;;;;;;2.70;0.90;;;4.20;99.90;;;;;;5094022;28;20509;-83
2021/03/13 02:22:19;;;;;;;2.43;0.70;;;4.20;99.90;;;;;;5093794;28;20475;-83
2021/03/13 02:25:01;;;;;;;4.07;0.90;;;4.10;99.90;;;;;;5093837;28;20451;-83
2021/03/13 02:27:29;;;;;;;1.13;0.70;;;4.10;99.90;;;;;;5093749;28;20470;-83
2021/03/13 02:30:00;;;;;;;1.63;0.73;;;4.20;99.90;;;;;;5093755;28;20452;-83
2021/03/13 02:32:37;;;;;;;5.03;0.83;;;4.20;99.90;;;;;;5093782;28;20428;-83
2021/03/13 02:35:07;;;;;;;3.87;1.00;;;4.30;99.90;;;;;;5094123;28;20791;-83
2021/03/13 02:37:37;;;;;;;2.17;0.90;;;4.30;99.90;;;;;;5093332;28;20486;-83
2021/03/13 02:40:06;;;;;;;0.67;0.67;;;4.30;99.90;;;;;;5093679;28;20432;-83
2021/03/13 02:42:40;;;;;;;3.17;0.80;;;4.30;99.90;;;;;;5093131;28;20484;-83
2021/03/13 02:45:09;;;;;;;4.23;1.43;;;4.30;99.90;;;;;;5093607;28;20428;-83
2021/03/13 02:47:40;;;;;;;4.00;0.87;;;4.30;99.90;;;;;;5093210;28;20521;-83
2021/03/13 02:50:08;;;;;;;2.30;0.70;;;4.30;99.90;;;;;;5093194;28;20428;-83
2021/03/13 02:52:36;;;;;;;2.70;0.83;;;4.30;99.90;;;;;;5093586;28;20782;-84
2021/03/13 02:55:03;;;;;;;3.30;0.93;;;4.30;99.90;;;;;;5093423;28;20447;-83
2021/03/13 02:57:30;;;;;;;4.03;0.70;;;4.40;99.90;;;;;;5093348;28;20464;-83
2021/03/13 02:59:57;;;;;;;1.83;1.50;;;4.40;99.90;;;;;;5093193;28;20425;-83
2021/03/13 03:02:25;;;;;;;0.73;0.73;;;4.30;99.90;;;;;;5093324;28;20479;-83
2021/03/13 03:04:54;;;;;;;2.00;0.60;;;4.30;99.90;;;;;;5093430;28;20444;-84
2021/03/13 03:07:24;;;;;;;2.40;0.80;;;4.30;99.90;;;;;;5093316;28;20475;-84
2021/03/13 03:09:52;;;;;;;2.90;0.93;;;4.30;99.90;;;;;;5093408;28;20443;-83
2021/03/13 03:12:19;;;;;;;3.87;0.77;;;4.30;99.90;;;;;;5093290;28;20447;-83
2021/03/13 03:14:46;;;;;;;0.70;0.70;;;4.30;99.90;;;;;;5093331;28;20500;-84
2021/03/13 03:17:13;;;;;;;5.57;0.90;;;4.30;99.90;;;;;;5093145;28;20835;-83
2021/03/13 03:19:42;;;;;;;0.90;0.90;;;4.40;99.90;;;;;;5093292;28;20448;-83
2021/03/13 03:22:09;;;;;;;1.40;0.70;;;4.50;99.90;;;;;;5093130;28;20480;-83
2021/03/13 03:24:35;;;;;;;1.37;0.70;;;4.50;99.90;;;;;;5092824;28;21001;-83
2021/03/13 03:27:02;;;;;;;4.43;1.00;;;4.50;99.90;;;;;;5093032;28;20463;-83
2021/03/13 03:29:29;;;;;;;3.13;0.80;;;4.50;99.90;;;;;;5092862;28;20448;-83
2021/03/13 03:31:55;;;;;;;1.73;0.70;;;4.50;99.90;;;;;;5093088;28;20418;-83
2021/03/13 03:34:21;;;;;;;0.80;0.70;;;4.60;99.90;;;;;;5093066;28;20440;-83
2021/03/13 03:36:49;;;;;;;2.03;0.70;;;4.60;99.90;;;;;;5092760;28;20979;-83
2021/03/13 03:39:16;;;;;;;0.70;0.60;;;4.60;99.90;;;;;;5093162;28;20450;-83
2021/03/13 03:41:47;;;;;;;1.67;0.80;;;4.60;99.90;;;;;;5093030;28;20475;-83
2021/03/13 03:44:15;;;;;;;3.70;0.70;;;4.70;99.90;;;;;;5092794;28;20428;-83
2021/03/13 03:46:41;;;;;;;3.70;0.80;;;4.70;99.90;;;;;;5092908;28;20568;-83
2021/03/13 03:49:10;;;;;;;1.27;0.70;;;4.70;99.90;;;;;;5093016;28;20451;-83
2021/03/13 03:51:36;;;;;;;2.33;0.60;;;4.70;99.90;;;;;;5092596;28;20471;-83
2021/03/13 03:54:08;;;;;;;1.20;0.57;;;4.70;99.90;;;;;;5092864;28;20444;-83
2021/03/13 03:56:35;;;;;;;2.00;0.70;;;4.80;99.90;;;;;;5092853;28;20476;-83
2021/03/13 03:59:02;;;;;;;0.80;0.80;;;4.90;99.90;;;;;;5094500;28;20966;-83
2021/03/13 04:01:30;;;;;;;2.63;0.87;;;4.90;99.90;;;;;;5096442;28;20848;-83
2021/03/13 04:03:58;;;;;;;1.20;0.50;;;4.90;99.90;;;;;;5096582;28;20561;-84
2021/03/13 04:06:26;;;;;;;0.60;0.60;;;4.90;99.90;;;;;;5096372;28;20468;-84
2021/03/13 04:08:57;;;;;;;0.60;0.50;;;4.90;99.90;;;;;;5096481;28;20436;-83
2021/03/13 04:11:26;;;;;;;0.57;0.57;;;5.00;99.90;;;;;;5096312;28;20448;-83
2021/03/13 04:13:56;;;;;;;0.50;0.50;;;5.00;99.90;;;;;;5096259;28;20444;-83
2021/03/13 04:16:23;;;;;;;1.00;0.70;;;5.00;99.90;;;;;;5095885;28;20983;-83
2021/03/13 04:18:49;;;;;;;2.90;0.70;;;5.00;99.90;;;;;;5096265;28;20818;-83
2021/03/13 04:21:17;;;;;;;1.17;0.57;;;5.00;99.90;;;;;;5096089;28;20851;-83
2021/03/13 04:23:46;;;;;;;1.27;0.60;;;5.10;99.90;;;;;;5096172;28;20466;-83
2021/03/13 04:26:12;;;;;;;1.00;0.60;;;5.10;99.90;;;;;;5096006;28;20479;-83
2021/03/13 04:28:40;;;;;;;0.50;0.50;;;5.20;99.90;;;;;;5096011;28;20843;-83
2021/03/13 04:31:06;;;;;;;1.80;0.40;;;5.20;99.90;;;;;;5096022;28;20437;-83
2021/03/13 04:33:34;;;;;;;1.90;1.23;;;5.20;99.90;;;;;;5095885;28;20939;-84
2021/03/13 04:36:01;;;;;;;0.87;0.50;;;5.30;99.90;;;;;;5095749;28;20479;-83
2021/03/13 04:38:28;;;;;;;1.67;0.50;;;5.30;99.90;;;;;;5095587;28;20947;-83
2021/03/13 04:40:55;;;;;;;0.50;0.50;;;5.30;99.90;;;;;;5095769;28;20463;-83
2021/03/13 04:43:24;;;;;;;2.20;0.70;;;5.30;99.90;;;;;;5095709;28;20479;-83
2021/03/13 04:45:55;;;;;;;2.27;0.60;;;5.30;99.90;;;;;;5095685;28;20511;-83
2021/03/13 04:48:21;;;;;;;0.80;0.50;;;5.30;99.90;;;;;;5095705;28;20887;-84
2021/03/13 04:50:48;;;;;;;1.00;0.43;;;5.30;99.90;;;;;;5095293;28;20480;-84
2021/03/13 04:53:14;;;;;;;0.60;0.50;;;5.30;99.90;;;;;;5095570;28;20443;-84
2021/03/13 04:55:40;;;;;;;1.43;0.90;;;5.30;99.90;;;;;;5095459;28;20468;-83
2021/03/13 04:58:06;;;;;;;0.50;0.47;;;5.30;99.90;;;;;;5095179;28;20965;-84
2021/03/13 05:00:33;;;;;;;0.87;0.40;;;5.30;99.90;;;;;;5095141;28;20448;-84
2021/03/13 05:03:00;;;;;;;1.37;0.50;;;5.40;99.90;;;;;;5094957;28;20484;-83
2021/03/13 05:05:26;;;;;;;2.83;0.60;;;5.40;99.90;;;;;;5094950;28;20497;-83
2021/03/13 05:07:53;;;;;;;4.00;0.70;;;5.40;99.90;;;;;;5095245;28;20503;-83
2021/03/13 05:10:19;;;;;;;0.40;0.40;;;5.40;99.90;;;;;;5094900;28;20815;-84
2021/03/13 05:12:45;;;;;;;1.97;0.60;;;5.50;99.90;;;;;;5094888;28;20904;-83
2021/03/13 05:15:12;;;;;;;1.33;0.60;;;5.40;99.90;;;;;;5095172;28;20798;-83
2021/03/13 05:17:38;;;;;;;0.60;0.60;;;5.50;99.90;;;;;;5095022;28;20467;-84
2021/03/13 05:20:09;;;;;;;1.77;0.50;;;5.50;99.90;;;;;;5095035;28;20452;-84
2021/03/13 05:22:36;;;;;;;1.77;0.70;;;5.60;99.90;;;;;;5094940;28;20460;-84
2021/03/13 05:25:02;;;;;;;0.80;0.40;;;5.70;99.90;;;;;;5095010;28;20792;-83
2021/03/13 05:27:29;;;;;;;3.20;0.50;;;5.70;99.90;;;;;;5094838;28;20492;-83
2021/03/13 05:29:55;;;;;;;2.77;0.50;;;5.60;99.90;;;;;;5094510;28;20444;-84
2021/03/13 05:32:21;;;;;;;0.50;0.40;;;5.60;99.90;;;;;;5094729;28;20436;-83
2021/03/13 05:34:49;;;;;;;1.70;0.60;;;5.70;99.90;;;;;;5094777;28;20546;-83
2021/03/13 05:37:16;;;;;;;0.73;0.50;;;5.70;99.90;;;;;;5094642;28;20467;-84
2021/03/13 05:39:42;;;;;;;4.23;0.57;;;5.70;99.90;;;;;;5094326;28;20452;-83
2021/03/13 05:42:10;;;;;;;0.90;0.60;;;5.70;99.90;;;;;;5094490;28;20488;-83
2021/03/13 05:44:38;;;;;;;1.33;0.63;;;5.80;99.90;;;;;;5094587;28;20444;-83
2021/03/13 05:47:05;;;;;;;0.50;0.40;;;5.80;99.90;;;;;;5094409;28;20861;-83
2021/03/13 05:49:32;;;;;;;2.00;0.50;;;5.80;99.90;;;;;;5094474;28;20448;-84
2021/03/13 05:51:59;;;;;;;2.33;0.50;;;5.90;99.90;;;;;;5093839;28;20475;-84
2021/03/13 05:54:26;;;;;;;0.80;0.60;;;5.90;99.90;;;;;;5094372;28;20444;-83
2021/03/13 05:56:53;;;;;;;1.03;0.50;;;6.00;99.90;;;;;;5094383;28;20464;-83
2021/03/13 05:59:19;;;;;;;5.00;0.50;;;6.00;99.90;;;;;;5094519;28;20432;-83
2021/03/13 06:01:46;;;;;;;2.30;0.97;;;6.00;99.90;;;;;;5093826;28;20505;-83
2021/03/13 06:04:12;;;;;;;1.37;0.67;;;6.10;99.90;;;;;;5094218;28;20501;-83
2021/03/13 06:06:39;;;;;;;2.00;0.50;;;6.10;99.90;;;;;;5094053;28;20513;-84
2021/03/13 06:09:07;;;;;;;0.93;0.53;;;6.10;99.90;;;;;;5094059;28;20448;-84
2021/03/13 06:11:34;;;;;;;0.70;0.50;;;6.10;99.90;;;;;;5093725;28;20456;-84
2021/03/13 06:14:00;;;;;;;4.20;0.70;;;6.10;99.90;;;;;;5094035;28;20458;-84
2021/03/13 06:16:27;;;;;;;1.37;0.53;;;6.10;99.90;;;;;;5093909;28;20468;-83
2021/03/13 06:18:56;;;;;;;1.13;0.50;;;6.10;99.90;;;;;;5093917;28;20444;-83
2021/03/13 06:21:24;;;;;;;1.33;0.70;;;6.20;99.90;;;;;;5093465;28;20488;-83
2021/03/13 06:23:56;;;;;;;1.03;0.57;;;6.30;99.90;;;;;;5093917;28;20508;-83
2021/03/13 06:26:22;;;;;;;2.47;0.50;;;6.30;99.90;;;;;;5093822;28;20467;-84
2021/03/13 06:28:52;;;;;;;0.80;0.50;;;6.30;99.90;;;;;;5093787;28;20435;-83
2021/03/13 06:31:23;;;;;;;3.73;0.90;;;6.30;99.90;;;;;;5093804;28;20451;-83
2021/03/13 06:33:49;;;;;;;0.70;0.50;;;6.30;99.90;;;;;;5093795;28;20799;-83
2021/03/13 06:36:23;;;;;;;0.50;0.50;;;6.40;99.90;;;;;;5093657;28;20472;-83
2021/03/13 06:38:50;;;;;;;0.80;0.60;;;6.40;99.90;;;;;;5093733;28;20437;-83
2021/03/13 06:41:18;;;;;;;1.00;0.60;;;6.40;99.90;;;;;;5093609;28;20447;-83
2021/03/13 06:43:45;;;;;;;0.70;0.50;;;6.50;99.90;;;;;;5093543;28;20911;-83
2021/03/13 06:46:14;;;;;;;1.70;0.40;;;6.60;99.90;;;;;;5093494;28;20463;-83
2021/03/13 06:48:43;;;;;;;1.67;0.60;;;6.70;99.90;;;;;;5093361;28;20438;-83
2021/03/13 06:51:27;;;;;;;1.63;0.50;;;6.70;99.90;;;;;;5093179;28;20821;-83
2021/03/13 06:54:02;;;;;;;2.20;0.70;;;6.70;99.90;;;;;;5093550;28;20462;-83
2021/03/13 06:56:29;;;;;;;0.60;0.60;;;6.80;99.90;;;;;;5093370;28;20472;-83
2021/03/13 06:58:56;;;;;;;1.10;0.60;;;6.80;99.90;;;;;;5093453;28;20448;-84
2021/03/13 07:01:28;;;;;;;1.47;0.50;;;6.80;99.90;;;;;;5093369;28;20440;-83
2021/03/13 07:03:55;;;;;;;1.17;0.50;;;6.90;99.90;;;;;;5093105;28;21004;-83
2021/03/13 07:06:22;;;;;;;0.57;0.50;;;7.00;99.90;;;;;;5093267;28;20478;-84
2021/03/13 07:08:49;;;;;;;0.73;0.40;;;7.00;99.90;;;;;;5093446;28;20428;-83
2021/03/13 07:11:24;;;;;;;1.60;0.40;;;7.00;99.90;;;;;;5093601;28;20456;-85
2021/03/13 07:13:53;;;;;;;3.67;0.70;;;7.10;99.90;;;;;;5093339;28;20447;-85
2021/03/13 07:16:21;;;;;;;2.87;0.50;;;7.30;99.90;;;;;;5093275;28;20528;-84
2021/03/13 07:18:49;;;;;;;1.47;0.43;;;7.40;99.90;;;;;;5092946;28;21000;-85
2021/03/13 07:21:17;;;;;;;0.90;0.43;;;7.50;99.90;;;;;;5093237;28;20451;-85
2021/03/13 07:23:44;;;;;;;0.50;0.50;;;7.60;99.90;;;;;;5093267;28;20498;-85
2021/03/13 07:26:11;;;;;;;0.90;0.37;;;7.60;99.90;;;;;;5093357;28;20472;-85
2021/03/13 07:28:42;;;;;;;0.60;0.50;;;7.70;99.90;;;;;;5093240;28;20432;-84
2021/03/13 07:31:10;;;;;;;0.60;0.43;;;7.80;99.90;;;;;;5094173;28;20436;-84
2021/03/13 07:33:38;;;;;;;1.43;0.50;;;7.80;99.90;;;;;;5095240;28;20431;-84
2021/03/13 07:36:10;;;;;;;1.60;0.60;;;7.80;99.90;;;;;;5096809;28;20974;-84
2021/03/13 07:38:41;;;;;;;2.70;0.43;;;7.80;99.90;;;;;;5097034;28;20440;-84
2021/03/13 07:41:10;;;;;;;2.10;0.40;;;7.80;99.90;;;;;;5097024;28;20779;-84
2021/03/13 07:43:38;;;;;;;3.43;0.40;;;7.70;99.90;;;;;;5096860;28;20467;-85
2021/03/13 07:46:08;;;;;;;0.47;0.40;;;7.90;99.90;;;;;;5096806;28;20562;-84
2021/03/13 07:48:35;;;;;;;1.17;0.40;;;7.90;99.90;;;;;;5096590;28;20930;-84
2021/03/13 07:51:02;;;;;;;0.50;0.40;;;8.00;99.90;;;;;;5096489;28;20545;-85
2021/03/13 07:53:33;;;;;;;1.70;0.40;;;8.10;99.90;;;;;;5096810;28;20805;-85
2021/03/13 07:56:00;;;;;;;1.10;0.40;;;8.10;99.90;;;;;;5096526;28;20521;-84
2021/03/13 07:58:26;;;;;;;2.30;0.50;;;8.10;99.90;;;;;;5096853;28;20448;-84
2021/03/13 08:00:54;;;;;;;2.43;0.50;;;8.00;99.90;;;;;;5096643;28;20444;-84
2021/03/13 08:03:43;;;;;;;1.07;0.50;;;8.00;99.90;;;;;;5096411;28;20487;-85
2021/03/13 08:06:11;;;;;;;0.50;0.40;;;8.10;99.90;;;;;;5096132;28;20517;-84
2021/03/13 08:08:40;;;;;;;0.97;0.60;;;8.40;99.90;;;;;;5096435;28;20928;-84
2021/03/13 08:11:07;;;;;;;0.40;0.30;;;8.60;99.90;;;;;;5096406;28;20440;-84
2021/03/13 08:13:53;;;;;;;0.50;0.50;;;8.80;99.90;;;;;;5096079;28;20939;-84
2021/03/13 08:16:42;;;;;;;2.33;0.40;;;8.90;99.90;;;;;;5096262;28;20841;-84
2021/03/13 08:19:37;;;;;;;0.93;0.40;;;9.00;99.90;;;;;;5095954;28;20969;-84
2021/03/13 08:22:24;;;;;;;6.03;0.50;;;9.00;99.90;;;;;;5096099;28;20471;-83
2021/03/13 08:24:53;;;;;;;2.00;0.70;;;8.90;99.90;;;;;;5089659;28;20451;-83
2021/03/13 08:27:38;;;;;;;0.40;0.40;;;8.80;99.90;;;;;;5095764;28;20466;-85
2021/03/13 08:30:20;;;;;;;0.60;0.50;;;8.80;99.90;;;;;;5095883;28;20409;-84
2021/03/13 08:33:03;;;;;;;0.83;0.50;;;8.90;99.90;;;;;;5093130;28;20452;-84
2021/03/13 08:35:51;;;;;;;3.60;0.40;;;9.00;99.90;;;;;;5095875;28;20433;-84
2021/03/13 08:38:42;;;;;;;1.40;0.40;;;9.10;99.90;;;;;;5096595;28;20447;-84
2021/03/13 08:41:09;;;;;;;0.70;0.40;;;9.30;99.90;;;;;;5095507;28;20444;-83
2021/03/13 08:43:44;;;;;;;1.13;0.60;;;9.40;99.90;;;;;;5095584;28;20510;-84
2021/03/13 08:46:43;;;;;;;0.70;0.50;;;9.60;99.90;;;;;;5095360;28;21086;-83
2021/03/13 08:49:11;;;;;;;0.40;0.40;;;9.70;99.70;;;;;;5095647;28;20501;-83
2021/03/13 08:51:37;;;;;;;0.67;0.40;;;9.90;98.50;;;;;;5095202;28;20507;-84
2021/03/13 08:54:04;;;;;;;1.17;0.60;;;10.00;98.00;;;;;;5095552;28;20440;-84
2021/03/13 08:56:42;;;;;;;0.40;0.40;;;10.00;97.40;;;;;;5095489;28;20475;-84
2021/03/13 08:59:10;;;;;;;2.57;0.93;;;10.00;96.90;;;;;;5095496;28;20432;-84
2021/03/13 09:01:36;;;;;;;1.03;0.50;;;10.20;97.40;;;;;;5095067;28;20951;-84
2021/03/13 09:04:03;;;;;;;0.60;0.50;;;10.40;96.60;;;;;;5095363;28;20444;-84
2021/03/13 09:06:29;;;;;;;0.50;0.40;;;10.70;96.40;;;;;;5095336;28;20490;-85
2021/03/13 09:09:11;;;;;;;0.50;0.40;;;11.00;93.40;;;;;;5095336;28;20455;-84
2021/03/13 09:11:40;;;;;;;4.03;0.40;;;11.40;92.70;;;;;;5095283;28;20412;-85
2021/03/13 09:14:07;;;;;;;0.50;0.37;;;11.50;92.30;;;;;;5094859;28;20543;-84
2021/03/13 09:16:35;;;;;;;0.70;0.33;;;11.40;90.10;;;;;;5095141;28;20479;-84
2021/03/13 09:19:02;;;;;;;0.57;0.50;;;11.20;90.60;;;;;;5095041;28;20452;-85
2021/03/13 09:21:49;;;;;;;0.50;0.50;;;11.20;91.40;;;;;;5095004;28;21020;-84
2021/03/13 09:24:18;;;;;;;0.90;0.50;;;11.00;91.40;;;;;;5095087;28;20439;-84
2021/03/13 09:26:49;;;;;;;2.90;0.50;;;10.80;90.40;;;;;;5094856;28;20540;-84
2021/03/13 09:29:16;;;;;;;0.60;0.60;;;10.80;90.40;;;;;;5094945;28;20408;-84
2021/03/13 09:31:42;;;;;;;0.97;0.30;;;10.90;90.00;;;;;;5094667;28;20505;-85
2021/03/13 09:34:13;;;;;;;1.33;0.53;;;10.90;90.30;;;;;;5094617;28;20826;-85
2021/03/13 09:36:39;;;;;;;1.50;0.30;;;11.10;89.70;;;;;;5094406;28;21016;-84
2021/03/13 09:39:06;;;;;;;0.50;0.50;;;11.10;87.10;;;;;;5094724;28;20451;-84
2021/03/13 09:41:32;;;;;;;0.50;0.40;;;11.20;88.90;;;;;;5094681;28;20471;-84
2021/03/13 09:43:59;;;;;;;2.30;0.50;;;11.30;88.30;;;;;;5094628;28;20498;-84
2021/03/13 09:46:26;;;;;;;0.40;0.30;;;11.40;86.80;;;;;;5094665;28;20464;-82
2021/03/13 09:48:53;;;;;;;0.93;0.60;;;11.30;87.00;;;;;;5095249;28;20436;-84
2021/03/13 09:51:19;;;;;;;1.43;0.60;;;11.30;84.50;;;;;;5095035;28;20488;-84
2021/03/13 09:53:45;;;;;;;0.53;0.50;;;11.10;86.50;;;;;;5095090;28;20447;-83
2021/03/13 09:56:11;;;;;;;1.00;0.50;;;11.10;88.10;;;;;;5093611;28;20464;-83
2021/03/13 09:58:38;;;;;;;0.90;0.50;;;10.80;86.40;;;;;;5094390;28;20458;-84
2021/03/13 10:01:05;;;;;;;0.50;0.40;;;10.80;88.00;;;;;;5094282;28;20451;-83
2021/03/13 10:03:32;;;;;;;2.43;0.60;;;10.60;87.70;;;;;;5094268;28;20475;-83
2021/03/13 10:05:59;;;;;;;0.90;0.47;;;10.60;89.50;;;;;;5093900;28;21057;-83
2021/03/13 10:08:34;;;;;;;0.50;0.50;;;10.50;87.90;;;;;;5094185;28;20478;-83
2021/03/13 10:11:02;;;;;;;0.50;0.40;;;10.50;88.50;;;;;;5094078;28;20435;-83
2021/03/13 10:13:29;;;;;;;0.80;0.40;;;10.40;89.10;;;;;;5093894;28;20432;-84
2021/03/13 10:15:56;;;;;;;3.60;0.50;;;10.30;89.20;;;;;;5094032;28;20464;-84
2021/03/13 10:18:27;;;;;;;0.60;0.57;;;10.30;89.40;;;;;;5094126;28;20432;-85
2021/03/13 10:20:55;;;;;;;0.50;0.30;;;10.30;89.20;;;;;;5094000;28;20800;-84
2021/03/13 10:23:23;;;;;;;1.03;0.40;;;10.40;90.20;;;;;;5093558;28;20975;-84
2021/03/13 10:25:55;;;;;;;1.63;0.53;;;10.40;90.00;;;;;;5093787;28;20870;-84
2021/03/13 10:28:25;;;;;;;1.33;0.47;;;10.10;89.20;;;;;;5093822;28;20441;-84
2021/03/13 10:30:51;;;;;;;1.47;0.40;;;10.10;90.10;;;;;;5093799;28;20447;-84
2021/03/13 10:33:30;;;;;;;0.70;0.30;;;10.20;90.00;;;;;;5093523;28;20432;-82
2021/03/13 10:35:57;;;;;;;4.17;0.60;;;10.20;90.40;;;;;;5093325;28;20468;-83
2021/03/13 10:38:23;;;;;;;2.33;0.40;;;10.10;88.10;;;;;;5093838;28;20404;-83
2021/03/13 10:40:50;;;;;;;0.90;0.40;;;10.10;89.60;;;;;;5093809;28;20439;-84
2021/03/13 10:43:26;;;;;;;4.03;0.40;;;10.10;90.20;;;;;;5093620;28;20483;-82
2021/03/13 10:46:09;;;;;;;0.40;0.40;;;10.00;89.50;;;;;;5093484;28;20460;-83
2021/03/13 10:48:56;;;;;;;0.60;0.47;;;10.10;90.30;;;;;;5093527;28;20883;-80
2021/03/13 10:51:24;;;;;;;0.73;0.40;;;10.00;89.40;;;;;;5093219;28;20864;-84
2021/03/13 10:53:50;;;;;;;1.47;0.40;;;10.00;89.40;;;;;;5093603;28;20428;-83
2021/03/13 10:56:17;;;;;;;0.53;0.50;;;10.00;89.40;;;;;;5093168;28;20812;-79
2021/03/13 10:58:48;;;;;;;0.60;0.50;;;10.20;89.50;;;;;;5093513;28;20432;-80
2021/03/13 11:01:16;;;;;;;4.20;0.50;;;10.10;88.30;;;;;;5093435;28;20433;-80
2021/03/13 11:03:44;;;;;;;4.17;0.50;;;10.20;88.60;;;;;;5092973;28;20468;-80
2021/03/13 11:06:12;;;;;;;0.70;0.30;;;10.20;88.70;;;;;;5093791;28;20472;-79
2021/03/13 11:08:38;;;;;;;1.97;0.50;;;10.20;88.20;;;;;;5096475;28;20432;-79
2021/03/13 11:11:05;;;;;;;1.23;0.40;;;10.20;88.20;;;;;;5097461;28;20926;-79
2021/03/13 11:13:31;;;;;;;0.50;0.40;;;10.20;87.80;;;;;;5097239;28;20432;-79
2021/03/13 11:15:57;;;;;;;0.43;0.40;;;10.20;88.00;;;;;;5097659;28;20974;-79
2021/03/13 11:18:24;;;;;;;0.97;0.30;;;10.20;86.90;;;;;;5097424;28;20413;-79
2021/03/13 11:23:33;;;;;;;0.97;0.40;;;10.30;87.10;;;;;;5097172;28;20479;-80
2021/03/13 11:26:00;;;;;;;0.80;0.43;;;10.30;87.90;;;;;;5097677;28;20462;-79
2021/03/13 11:28:26;;;;;;;0.40;0.40;;;10.40;87.30;;;;;;5098033;28;20458;-80
2021/03/13 11:30:52;;;;;;;0.50;0.43;;;10.40;86.00;;;;;;5097190;28;20442;-79
2021/03/13 11:33:19;;;;;;;0.50;0.40;;;10.40;86.50;;;;;;5097151;28;20420;-79
2021/03/13 11:35:45;;;;;;;0.60;0.40;;;10.50;86.00;;;;;;5096854;28;20970;-79
2021/03/13 11:38:12;;;;;;;2.80;0.50;;;10.40;86.40;;;;;;5097076;28;20461;-79
2021/03/13 11:40:40;;;;;;;0.50;0.43;;;10.50;86.00;;;;;;5096758;28;20919;-79
2021/03/13 11:43:06;;;;;;;0.70;0.67;;;10.60;84.20;;;;;;5098625;28;20831;-84
2021/03/13 11:45:33;;;;;;;2.70;0.40;;;10.50;85.80;;;;;;5096987;28;20481;-78
2021/03/13 11:47:59;;;;;;;0.63;0.40;;;10.70;84.80;;;;;;5097162;28;20436;-82
2021/03/13 11:50:28;;;;;;;1.47;0.40;;;10.70;83.50;;;;;;5096965;28;20480;-80
2021/03/13 11:52:55;;;;;;;0.70;0.40;;;10.70;83.50;;;;;;5097310;28;20468;-78
2021/03/13 11:55:23;;;;;;;1.13;0.40;;;10.70;86.10;;;;;;5096636;28;20444;-79
2021/03/13 11:57:49;;;;;;;1.77;0.37;;;10.60;83.60;;;;;;5096621;28;20469;-82
2021/03/13 12:00:17;;;;;;;0.53;0.30;;;10.40;83.80;;;;;;5096646;28;21021;-79
2021/03/13 12:02:43;;;;;;;0.60;0.40;;;10.40;85.00;;;;;;5096621;28;20467;-76
2021/03/13 12:05:10;;;;;;;1.10;0.40;;;10.30;85.50;;;;;;5096525;28;20428;-81
2021/03/13 12:07:38;;;;;;;0.50;0.40;;;10.30;86.90;;;;;;5096403;28;20468;-81
2021/03/13 12:10:05;;;;;;;0.60;0.40;;;10.30;87.80;;;;;;5096447;28;20432;-81
2021/03/13 12:12:32;;;;;;;0.50;0.40;;;10.20;89.40;;;;;;5096421;28;20420;-81
2021/03/13 12:14:59;;;;;;;0.40;0.33;;;10.00;90.60;;;;;;5096070;28;20488;-81
2021/03/13 12:17:25;;;;;;;2.57;0.40;;;10.00;91.60;;;;;;5095957;28;20998;-81
2021/03/13 12:19:51;;;;;;;0.40;0.40;;;10.00;93.20;;;;;;5095206;28;20443;-81
2021/03/13 12:22:18;;;;;;;3.03;0.50;;;9.90;94.00;;;;;;5095864;28;20464;-76
2021/03/13 12:24:44;;;;;;;0.90;0.40;;;9.90;95.20;;;;;;5096179;28;20412;-76
2021/03/13 12:27:10;;;;;;;0.80;0.40;;;9.90;95.50;;;;;;5096083;28;20468;-76
2021/03/13 12:29:37;;;;;;;0.40;0.40;;;9.80;97.60;;;;;;5096077;28;20436;-76
2021/03/13 12:32:05;;;;;;;2.00;0.37;;;9.70;97.70;;;;;;5096069;28;20436;-75
2021/03/13 12:34:31;;;;;;;0.40;0.30;;;9.70;98.90;;;;;;5096036;28;20433;-75
2021/03/13 12:36:57;;;;;;;0.50;0.40;;;9.60;99.90;;;;;;5095884;28;20464;-75
2021/03/13 12:39:23;;;;;;;0.60;0.43;;;9.70;99.00;;;;;;5095628;28;20965;-82
2021/03/13 12:41:50;;;;;;;0.70;0.40;;;9.70;99.10;;;;;;5095858;28;20489;-82
2021/03/13 12:44:16;;;;;;;0.40;0.40;;;9.70;99.70;;;;;;5096497;28;20463;-75
2021/03/13 12:46:43;;;;;;;0.40;0.40;;;9.90;99.70;;;;;;5095709;28;20468;-83
2021/03/13 12:49:10;;;;;;;1.13;0.40;;;9.90;99.90;;;;;;5095838;28;20428;-82
2021/03/13 12:51:36;;;;;;;0.43;0.40;;;10.00;99.90;;;;;;5095315;28;20571;-82
2021/03/13 12:54:03;;;;;;;0.40;0.40;;;9.80;99.90;;;;;;5095615;28;20435;-82
2021/03/13 12:56:29;;;;;;;0.40;0.40;;;9.70;99.90;;;;;;5095563;28;20517;-76
2021/03/13 12:58:56;;;;;;;0.40;0.40;;;9.60;99.90;;;;;;5095573;28;20435;-82
2021/03/13 13:01:22;;;;;;;1.00;0.40;;;9.60;99.90;;;;;;5095500;28;20428;-77
2021/03/13 13:03:55;;;;;;;0.40;0.40;;;9.50;99.90;;;;;;5095005;28;20997;-77
2021/03/13 13:06:21;;;;;;;3.17;0.43;;;9.40;99.90;;;;;;5095311;28;20529;-77